Time;durP1;ratioP1;P1;durP2;ratioP2;P2;SDS_P1;SDS_P2;PMS_P1;PMS_P2;Temp;Humidity;BMP_temperature;BMP_pressure;BME280_temperature;BME280_humidity;BME280_pressure;Samples;Min_cycle;Max_cycle;Signal;HPM_P1;HPM_P2
2023/09/06 00:00:16;;;;;;;0.40;0.40;;;;;;;15.90;72.26;97240.34;29395;202;63004;-69
2023/09/06 00:00:51;;;;;;;0.40;0.40;;;;;;;15.88;72.46;97245.34;29394;202;64013;-69
2023/09/06 00:01:22;;;;;;;0.40;0.40;;;;;;;15.89;72.54;97244.22;29395;207;63011;-53
2023/09/06 00:01:56;;;;;;;0.47;0.47;;;;;;;15.88;72.61;97239.88;29395;253;63018;-70
2023/09/06 00:02:29;;;;;;;0.40;0.40;;;;;;;15.89;72.66;97244.22;29395;218;63005;-69
2023/09/06 00:03:00;;;;;;;0.40;0.40;;;;;;;15.88;72.70;97239.88;29395;222;63009;-69
2023/09/06 00:03:32;;;;;;;0.47;0.47;;;;;;;15.90;72.68;97237.62;29395;206;63005;-53
2023/09/06 00:04:07;;;;;;;0.47;0.47;;;;;;;15.90;72.61;97243.09;29395;222;63009;-53
2023/09/06 00:04:38;;;;;;;6.97;6.72;;;;;;;15.88;72.61;97234.41;29395;215;63005;-70
2023/09/06 00:05:09;;;;;;;0.40;0.40;;;;;;;15.87;72.17;97237.44;29395;207;63009;-53
2023/09/06 00:05:42;;;;;;;0.45;0.45;;;;;;;15.87;72.24;97240.19;29395;292;63004;-69
2023/09/06 00:06:13;;;;;;;0.40;0.40;;;;;;;15.87;72.34;97237.44;29394;219;64013;-68
2023/09/06 00:06:45;;;;;;;0.40;0.40;;;;;;;15.87;72.30;97242.91;29395;203;63004;-53
2023/09/06 00:07:18;;;;;;;0.40;0.40;;;;;;;15.87;72.60;97246.47;29395;224;63009;-70
2023/09/06 00:07:49;;;;;;;0.50;0.50;;;;;;;15.86;72.54;97242.13;29395;202;63008;-69
2023/09/06 00:08:22;;;;;;;0.40;0.40;;;;;;;15.87;72.68;97234.72;29395;230;63008;-69
2023/09/06 00:08:54;;;;;;;0.45;0.45;;;;;;;15.86;72.55;97241.31;29395;210;63004;-68
2023/09/06 00:09:25;;;;;;;0.40;0.40;;;;;;;15.86;72.48;97242.13;29395;292;63017;-70
2023/09/06 00:09:56;;;;;;;0.40;0.40;;;;;;;15.85;72.22;97235.03;29395;235;63005;-69
2023/09/06 00:10:28;;;;;;;0.40;0.40;;;;;;;15.85;72.16;97235.03;29394;218;64014;-71
2023/09/06 00:11:04;;;;;;;0.40;0.40;;;;;;;15.84;72.23;97240.81;29395;198;63005;-68
2023/09/06 00:11:35;;;;;;;0.40;0.40;;;;;;;15.84;72.64;97240.81;29395;257;63009;-69
2023/09/06 00:12:06;;;;;;;0.50;0.50;;;;;;;15.83;72.16;97237.28;29395;197;63005;-69
2023/09/06 00:12:40;;;;;;;0.40;0.40;;;;;;;15.85;72.25;97234.22;29395;253;63009;-69
2023/09/06 00:13:13;;;;;;;0.40;0.40;;;;;;;15.84;72.26;97238.88;29395;229;63004;-69
2023/09/06 00:13:44;;;;;;;0.40;0.40;;;;;;;15.84;72.04;97238.09;29395;206;63009;-69
2023/09/06 00:14:16;;;;;;;0.40;0.40;;;;;;;15.83;71.86;97237.28;29395;232;63004;-69
2023/09/06 00:14:47;;;;;;;0.40;0.40;;;;;;;15.82;72.04;97238.41;29395;320;63009;-69
2023/09/06 00:15:20;;;;;;;0.40;0.40;;;;;;;15.83;72.14;97236.47;29394;214;64009;-68
2023/09/06 00:15:51;;;;;;;0.40;0.40;;;;;;;15.83;72.20;97239.22;29395;202;63008;-68
2023/09/06 00:16:22;;;;;;;0.40;0.40;;;;;;;15.82;72.20;97240.34;29395;245;63019;-70
2023/09/06 00:16:54;;;;;;;0.40;0.40;;;;;;;15.82;72.17;97241.13;29395;229;63009;-70
2023/09/06 00:17:26;;;;;;;0.40;0.40;;;;;;;15.81;71.92;97239.53;29395;220;63005;-52
2023/09/06 00:18:03;;;;;;;0.40;0.40;;;;;;;15.79;71.87;97241.78;29395;205;63009;-53
2023/09/06 00:18:35;;;;;;;0.40;0.40;;;;;;;15.79;72.51;97239.03;29395;225;63005;-53
2023/09/06 00:19:06;;;;;;;0.40;0.40;;;;;;;15.79;72.10;97235.50;29395;235;63009;-69
2023/09/06 00:19:42;;;;;;;0.40;0.40;;;;;;;15.79;72.17;97235.50;29395;197;63005;-69
2023/09/06 00:20:24;;;;;;;0.40;0.40;;;;;;;15.78;72.34;97245.62;29394;235;64013;-69
2023/09/06 00:20:57;;;;;;;0.40;0.40;;;;;;;15.78;72.57;97234.69;29395;271;63016;-69
2023/09/06 00:21:29;;;;;;;0.40;0.40;;;;;;;15.78;72.33;97236.63;29395;215;63009;-69
2023/09/06 00:22:00;;;;;;;0.40;0.40;;;;;;;15.76;72.13;97242.41;29395;220;63004;-69
2023/09/06 00:22:32;;;;;;;0.50;0.50;;;;;;;15.75;72.05;97241.59;29395;224;63008;-70
2023/09/06 00:23:09;;;;;;;0.40;0.40;;;;;;;15.75;72.10;97235.31;29394;228;64008;-69
2023/09/06 00:23:40;;;;;;;0.40;0.40;;;;;;;15.74;72.55;97239.97;29395;241;63008;-70
2023/09/06 00:24:12;;;;;;;0.40;0.40;;;;;;;15.74;72.55;97233.72;29395;204;63005;-54
2023/09/06 00:24:44;;;;;;;0.40;0.40;;;;;;;15.75;72.31;97235.31;29395;206;63017;-68
2023/09/06 00:25:19;;;;;;;0.40;0.40;;;;;;;15.72;72.43;97238.69;29395;268;63005;-69
2023/09/06 00:25:50;;;;;;;0.40;0.40;;;;;;;15.70;72.15;97238.19;29394;227;64013;-68
2023/09/06 00:26:21;;;;;;;0.40;0.40;;;;;;;15.70;72.47;97232.72;29395;197;63005;-69
2023/09/06 00:26:58;;;;;;;0.40;0.40;;;;;;;15.69;72.23;97234.66;29395;199;63009;-69
2023/09/06 00:27:29;;;;;;;0.40;0.40;;;;;;;15.69;72.34;97233.84;29395;197;63004;-54
2023/09/06 00:28:03;;;;;;;0.40;0.40;;;;;;;15.68;72.31;97229.50;29395;230;63009;-53
2023/09/06 00:28:35;;;;;;;0.40;0.40;;;;;;;15.66;72.07;97229.00;29395;292;63004;-70
2023/09/06 00:29:07;;;;;;;0.40;0.40;;;;;;;15.65;72.71;97230.12;29394;207;64013;-70
2023/09/06 00:29:39;;;;;;;0.40;0.40;;;;;;;15.65;72.41;97238.34;29395;232;63016;-69
2023/09/06 00:30:10;;;;;;;0.40;0.40;;;;;;;15.65;72.80;97230.12;29395;196;63008;-69
2023/09/06 00:30:44;;;;;;;0.47;0.47;;;;;;;15.64;72.43;97234.00;29395;404;63004;-69
2023/09/06 00:31:15;;;;;;;0.40;0.40;;;;;;;15.61;72.54;97231.88;29395;226;63009;-69
2023/09/06 00:31:48;;;;;;;0.40;0.40;;;;;;;15.61;72.92;97237.34;29394;197;64009;-54
2023/09/06 00:32:22;;;;;;;0.45;0.45;;;;;;;15.61;72.43;97234.63;29395;205;63009;-70
2023/09/06 00:32:53;;;;;;;0.40;0.40;;;;;;;15.61;72.68;97229.16;29394;232;64009;-70
2023/09/06 00:33:35;;;;;;;0.40;0.40;;;;;;;15.61;72.42;97237.34;29395;204;63009;-68
2023/09/06 00:34:09;;;;;;;0.40;0.40;;;;;;;15.61;72.47;97237.34;29417;230;63005;-69
2023/09/06 00:34:41;;;;;;;0.40;0.40;;;;;;;15.61;72.75;97229.16;29395;223;63009;-70
2023/09/06 00:35:19;;;;;;;0.50;0.50;;;;;;;15.61;72.31;97231.88;29395;296;63004;-69
2023/09/06 00:35:51;;;;;;;0.50;0.50;;;;;;;15.58;72.63;97235.28;29395;232;63004;-69
2023/09/06 00:36:22;;;;;;;0.50;0.50;;;;;;;15.56;72.64;97232.03;29395;207;63004;-68
2023/09/06 00:36:54;;;;;;;0.50;0.50;;;;;;;15.57;72.52;97233.66;29395;247;63013;-70
2023/09/06 00:37:35;;;;;;;0.50;0.50;;;;;;;15.56;72.43;97226.56;29395;269;63004;-53
2023/09/06 00:38:06;;;;;;;;;;;;;;;15.56;72.49;97232.84;29996;983;6004;-69
2023/09/06 00:38:38;;;;;;;0.50;0.50;;;;;;;15.56;72.25;97227.37;29421;314;64014;-70
2023/09/06 00:39:10;;;;;;;0.40;0.40;;;;;;;15.57;72.43;97228.19;29395;258;63005;-69
2023/09/06 00:39:43;;;;;;;0.40;0.40;;;;;;;15.57;72.11;97229.00;29395;325;63009;-70
2023/09/06 00:40:18;;;;;;;0.50;0.50;;;;;;;15.55;72.37;97233.16;29395;221;63005;-53
2023/09/06 00:40:51;;;;;;;0.43;0.43;;;;;;;15.55;72.56;97225.75;29395;387;63009;-68
2023/09/06 00:41:24;;;;;;;0.50;0.50;;;;;;;15.56;72.89;97232.03;29395;224;63005;-70
2023/09/06 00:41:55;;;;;;;0.45;0.45;;;;;;;15.55;72.97;97231.22;29395;289;63009;-69
2023/09/06 00:42:30;;;;;;;0.50;0.50;;;;;;;15.56;72.51;97234.75;29394;230;64009;-69
2023/09/06 00:43:03;;;;;;;0.40;0.40;;;;;;;15.55;72.40;97231.22;29395;243;63009;-70
2023/09/06 00:43:35;;;;;;;0.40;0.40;;;;;;;15.55;72.76;97230.41;29395;377;63004;-69
2023/09/06 00:44:08;;;;;;;0.50;0.50;;;;;;;15.55;72.80;97227.69;29395;234;63009;-71
2023/09/06 00:44:40;;;;;;;0.50;0.50;;;;;;;15.55;72.61;97222.19;29395;203;63004;-70
2023/09/06 00:45:12;;;;;;;0.50;0.50;;;;;;;15.54;72.13;97223.31;29395;239;63008;-54
2023/09/06 00:45:50;;;;;;;0.50;0.50;;;;;;;15.54;72.03;97228.78;29395;220;63004;-68
2023/09/06 00:46:22;;;;;;;0.40;0.40;;;;;;;15.54;71.80;97226.06;29394;208;64014;-69
2023/09/06 00:46:54;;;;;;;0.50;0.50;;;;;;;15.55;72.00;97224.94;29395;236;63005;-69
2023/09/06 00:47:25;;;;;;;0.40;0.40;;;;;;;15.55;72.13;97228.47;29394;203;64014;-69
2023/09/06 00:47:58;;;;;;;0.50;0.50;;;;;;;15.56;72.07;97227.37;29395;222;63005;-70
2023/09/06 00:48:29;;;;;;;0.45;0.45;;;;;;;15.57;72.33;97228.19;29395;209;63019;-71
2023/09/06 00:49:02;;;;;;;0.45;0.45;;;;;;;15.57;72.00;97234.47;29395;204;63005;-69
2023/09/06 00:49:33;;;;;;;0.50;0.50;;;;;;;15.58;71.99;97230.62;29395;197;63009;-54
2023/09/06 00:50:06;;;;;;;0.50;0.50;;;;;;;15.57;71.86;97228.19;29395;215;63004;-69
2023/09/06 00:50:40;;;;;;;0.40;0.40;;;;;;;15.57;72.04;97230.94;29395;218;63004;-70
2023/09/06 00:51:12;;;;;;;0.40;0.40;;;;;;;15.56;72.17;97227.37;29395;232;63004;-69
2023/09/06 00:51:43;;;;;;;0.50;0.50;;;;;;;15.56;72.59;97232.03;29394;290;64013;-69
2023/09/06 00:52:17;;;;;;;0.43;0.43;;;;;;;15.56;72.20;97232.03;29395;263;63004;-54
2023/09/06 00:52:51;;;;;;;0.50;0.50;;;;;;;15.55;72.34;97231.22;29395;207;63008;-70
2023/09/06 00:53:25;;;;;;;0.50;0.50;;;;;;;15.55;72.67;97238.62;29395;301;63004;-70
2023/09/06 00:54:00;;;;;;;0.50;0.50;;;;;;;15.54;72.03;97231.53;29395;225;63009;-69
2023/09/06 00:54:31;;;;;;;0.47;0.47;;;;;;;15.54;72.59;97234.25;29395;215;63009;-70
2023/09/06 00:55:04;;;;;;;0.50;0.50;;;;;;;15.53;72.23;97240.84;29395;365;63009;-54
2023/09/06 00:55:37;;;;;;;0.50;0.50;;;;;;;15.51;72.42;97237.62;29395;220;63005;-70
2023/09/06 00:56:08;;;;;;;0.43;0.43;;;;;;;15.47;72.05;97236.66;29395;235;63005;-70
2023/09/06 00:56:40;;;;;;;0.50;0.50;;;;;;;15.46;72.47;97237.75;29395;233;63005;-70
2023/09/06 00:57:12;;;;;;;0.40;0.40;;;;;;;15.47;72.69;97239.38;29394;196;64013;-70
2023/09/06 00:57:48;;;;;;;0.45;0.45;;;;;;;15.46;72.82;97237.75;29395;233;63016;-54
2023/09/06 00:58:20;;;;;;;0.40;0.40;;;;;;;15.46;72.84;97240.50;29395;324;63009;-70
2023/09/06 00:58:52;;;;;;;0.40;0.40;;;;;;;15.46;72.64;97237.75;29395;236;63004;-69
2023/09/06 00:59:26;;;;;;;0.40;0.40;;;;;;;15.45;72.57;97238.88;29395;292;63009;-69
2023/09/06 00:59:59;;;;;;;0.40;0.40;;;;;;;15.45;72.70;97241.63;29395;224;63004;-68
2023/09/06 01:00:31;;;;;;;0.40;0.40;;;;;;;15.45;72.61;97236.16;29395;211;63008;-70
2023/09/06 01:01:05;;;;;;;0.40;0.40;;;;;;;15.44;72.93;97235.34;29394;212;64005;-68
2023/09/06 01:01:36;;;;;;;0.40;0.40;;;;;;;15.45;72.54;97241.63;29395;254;63009;-53
2023/09/06 01:02:08;;;;;;;0.40;0.40;;;;;;;15.45;72.28;97236.16;29395;209;63005;-53
2023/09/06 01:02:40;;;;;;;0.40;0.40;;;;;;;15.45;72.53;97236.16;29394;266;64013;-69
2023/09/06 01:03:11;;;;;;;0.40;0.40;;;;;;;15.45;72.69;97241.63;29395;226;63017;-53
2023/09/06 01:03:43;;;;;;;0.40;0.40;;;;;;;15.46;72.29;97232.28;29395;206;63005;-68
2023/09/06 01:04:14;;;;;;;0.40;0.40;;;;;;;15.44;72.13;97229.88;29395;219;63005;-69
2023/09/06 01:04:45;;;;;;;0.40;0.40;;;;;;;15.43;71.98;97229.06;29395;219;63009;-69
2023/09/06 01:05:17;;;;;;;0.40;0.40;;;;;;;15.43;72.18;97233.72;29395;224;63004;-69
2023/09/06 01:06:33;;;;;;;0.40;0.40;;;;;;;15.43;72.21;97234.53;29395;210;63009;-68
2023/09/06 01:07:05;;;;;;;0.40;0.40;;;;;;;15.42;72.24;97227.47;29395;237;63004;-69
2023/09/06 01:07:38;;;;;;;0.40;0.40;;;;;;;15.43;71.82;97229.06;29395;227;63009;-68
2023/09/06 01:08:18;;;;;;;0.40;0.40;;;;;;;15.45;71.83;97230.69;29394;225;64008;-69
2023/09/06 01:08:58;;;;;;;0.50;0.50;;;;;;;15.43;72.06;97229.06;29395;229;63009;-68
2023/09/06 01:09:30;;;;;;;0.40;0.40;;;;;;;15.45;71.79;97230.69;29395;197;63005;-68
2023/09/06 01:10:05;;;;;;;0.50;0.50;;;;;;;15.44;71.83;97224.41;29395;229;63009;-53
2023/09/06 01:10:37;;;;;;;0.40;0.40;;;;;;;15.45;71.73;97225.22;29395;227;63005;-69
2023/09/06 01:11:27;;;;;;;0.40;0.40;;;;;;;15.45;72.01;97228.75;29395;222;63009;-68
2023/09/06 01:11:59;;;;;;;0.40;0.40;;;;;;;15.46;71.71;97224.09;29395;215;63005;-69
2023/09/06 01:12:30;;;;;;;0.40;0.40;;;;;;;15.46;71.60;97224.09;29395;217;63009;-53
2023/09/06 01:13:02;;;;;;;0.40;0.40;;;;;;;15.45;71.77;97228.75;29395;225;63004;-67
2023/09/06 01:13:36;;;;;;;0.40;0.40;;;;;;;15.45;71.93;97234.22;29394;236;64013;-69
2023/09/06 01:14:09;;;;;;;0.40;0.40;;;;;;;15.45;71.89;97230.69;29395;228;63004;-68
2023/09/06 01:14:40;;;;;;;0.50;0.50;;;;;;;15.43;71.86;97234.53;29395;204;63009;-69
2023/09/06 01:15:12;;;;;;;0.40;0.40;;;;;;;15.44;71.96;97229.88;29395;212;63003;-70
2023/09/06 01:15:46;;;;;;;0.43;0.43;;;;;;;15.43;71.71;97229.06;29395;197;63008;-53
2023/09/06 01:16:30;;;;;;;0.43;0.43;;;;;;;15.43;72.08;97229.06;29395;197;63012;-68
2023/09/06 01:17:02;;;;;;;0.40;0.40;;;;;;;15.43;71.71;97223.59;29395;200;63009;-68
2023/09/06 01:17:37;;;;;;;0.50;0.50;;;;;;;15.45;72.07;97225.22;29395;222;63009;-68
2023/09/06 01:18:09;;;;;;;0.50;0.50;;;;;;;15.43;71.83;97223.59;29395;247;63009;-69
2023/09/06 01:18:42;;;;;;;0.50;0.50;;;;;;;15.45;71.66;97227.94;29394;255;64009;-68
2023/09/06 01:19:15;;;;;;;0.50;0.50;;;;;;;15.45;71.85;97225.22;29395;230;63026;-69
2023/09/06 01:19:54;;;;;;;0.40;0.40;;;;;;;15.40;71.86;97223.41;29395;344;63005;-68
2023/09/06 01:20:32;;;;;;;0.50;0.50;;;;;;;15.45;71.81;97225.22;29395;208;63013;-70
2023/09/06 01:21:10;;;;;;;0.50;0.50;;;;;;;15.45;71.96;97233.41;29395;208;63004;-53
2023/09/06 01:22:20;;;;;;;0.50;0.50;;;;;;;15.45;71.66;97222.47;29395;326;63009;-67
2023/09/06 01:23:58;;;;;;;0.45;0.45;;;;;;;15.47;71.81;97222.97;88182;296;64005;-91
2023/09/06 01:24:30;;;;;;;0.40;0.40;;;;;;;15.47;71.71;97223.78;29394;220;64009;-91
2023/09/06 01:25:02;;;;;;;0.50;0.50;;;;;;;15.50;71.68;97227.81;29395;231;63004;-91
2023/09/06 01:25:33;;;;;;;0.40;0.40;;;;;;;15.49;71.60;97220.72;29394;213;64013;-89
2023/09/06 01:26:06;;;;;;;0.40;0.40;;;;;;;15.50;71.42;97216.88;29395;197;63004;-90
2023/09/06 01:26:38;;;;;;;0.43;0.43;;;;;;;15.49;71.68;97218.81;29395;212;63008;-91
2023/09/06 01:27:12;;;;;;;0.40;0.40;;;;;;;15.50;71.88;97222.34;29394;222;64009;-90
2023/09/06 01:27:44;;;;;;;0.40;0.40;;;;;;;15.51;72.05;97215.75;29395;206;63009;-90
2023/09/06 01:28:16;;;;;;;0.50;0.50;;;;;;;15.52;71.61;97214.62;29395;227;63005;-91
2023/09/06 01:28:49;;;;;;;0.40;0.40;;;;;;;15.51;72.01;97213.81;29395;318;63009;-91
2023/09/06 01:29:20;;;;;;;0.50;0.50;;;;;;;15.53;71.88;97218.97;29394;197;64009;-93
2023/09/06 01:29:52;;;;;;;0.60;0.60;;;;;;;15.50;71.63;97208.66;29395;272;63009;-90
2023/09/06 01:30:29;;;;;;;0.40;0.40;;;;;;;15.53;71.62;97218.97;29395;214;63005;-91
2023/09/06 01:31:03;;;;;;;0.40;0.40;;;;;;;15.53;71.61;97216.25;29395;303;63009;-91
2023/09/06 01:31:35;;;;;;;0.40;0.40;;;;;;;15.53;71.50;97216.25;29395;212;63004;-91
2023/09/06 01:32:07;;;;;;;0.40;0.40;;;;;;;15.53;71.67;97213.50;29395;256;63009;-91
2023/09/06 01:32:42;;;;;;;0.40;0.40;;;;;;;15.53;71.45;97213.50;29395;221;63011;-92
2023/09/06 01:33:17;;;;;;;0.40;0.40;;;;;;;15.53;71.64;97216.25;29394;196;64013;-90
2023/09/06 01:33:54;;;;;;;0.40;0.40;;;;;;;15.53;71.74;97211.59;29395;233;63004;-91
2023/09/06 01:34:27;;;;;;;0.40;0.40;;;;;;;15.53;72.14;97210.78;29395;209;63009;-92
2023/09/06 01:35:11;;;;;;;0.40;0.40;;;;;;;15.52;72.15;97214.62;29395;197;63005;-92
2023/09/06 01:35:44;;;;;;;0.50;0.50;;;;;;;15.53;72.22;97216.25;29395;218;63009;-91
2023/09/06 01:37:03;;;;;;;0.50;0.50;;;;;;;15.52;72.38;97220.91;29395;197;63005;-92
2023/09/06 01:38:36;;;;;;;;;;;;;;;;;;;;;
2023/09/06 01:40:27;;;;;;;;;;;;;;;;;;;;;
2023/09/06 01:47:25;;;;;;;;;;;;;;;;;;;;;
2023/09/06 01:50:53;;;;;;;;;;;;;;;;;;;;;
2023/09/06 01:52:48;;;;;;;0.50;0.50;;;;;;;15.32;73.39;97215.97;29416;197;64013;-91
2023/09/06 01:54:25;;;;;;;0.50;0.50;;;;;;;15.30;73.30;97201.81;29394;295;64009;-92
2023/09/06 01:56:07;;;;;;;;;;;;;;;;;;;;;
2023/09/06 01:57:46;;;;;;;0.40;0.40;;;;;;;15.25;72.98;97200.03;29395;302;63009;-90
2023/09/06 01:58:51;;;;;;;0.50;0.50;;;;;;;15.26;73.55;97207.09;29395;199;63009;-92
2023/09/06 01:59:44;;;;;;;0.50;0.50;;;;;;;15.26;73.18;97209.03;29394;207;64009;-91
2023/09/06 02:00:37;;;;;;;0.50;0.50;;;;;;;15.25;72.95;97219.16;29394;213;64013;-92
2023/09/06 02:01:16;;;;;;;0.50;0.50;;;;;;;15.25;73.15;97208.22;29395;285;63004;-92
2023/09/06 02:01:54;;;;;;;0.50;0.50;;;;;;;15.26;73.57;97217.25;29395;226;63009;-94
2023/09/06 02:02:28;;;;;;;0.50;0.50;;;;;;;15.24;73.22;97214.84;29395;327;63004;-91
2023/09/06 02:03:11;;;;;;;0.50;0.50;;;;;;;15.23;73.14;97210.50;29395;361;63008;-91
2023/09/06 02:03:43;;;;;;;0.50;0.50;;;;;;;15.22;73.17;97214.34;29395;326;63004;-93
2023/09/06 02:04:14;;;;;;;0.50;0.50;;;;;;;15.22;73.62;97208.88;29395;264;63008;-91
2023/09/06 02:04:47;;;;;;;0.47;0.47;;;;;;;15.21;73.64;97212.75;29395;209;63007;-92
2023/09/06 02:05:22;;;;;;;0.50;0.50;;;;;;;15.20;73.71;97213.06;29394;210;64013;-91
2023/09/06 02:05:57;;;;;;;0.50;0.50;;;;;;;15.18;73.55;97210.63;29395;213;63005;-91
2023/09/06 02:06:33;;;;;;;0.40;0.40;;;;;;;15.16;73.94;97212.06;29395;222;63009;-90
2023/09/06 02:14:08;;;;;;;0.50;0.50;;;;;;;14.99;74.84;97213.59;29393;218;64000;-70
2023/09/06 02:26:16;;;;;;;0.50;0.50;;;;;;;14.87;75.87;97212.56;88122;224;64005;-68
2023/09/06 02:26:47;;;;;;;0.50;0.50;;;;;;;14.86;75.56;97208.22;29394;202;64009;-69
2023/09/06 02:27:19;;;;;;;0.50;0.50;;;;;;;14.87;75.40;97212.56;29395;207;63004;-67
2023/09/06 02:27:50;;;;;;;0.47;0.47;;;;;;;14.86;75.38;97210.94;29395;232;63009;-68
2023/09/06 02:28:22;;;;;;;0.50;0.50;;;;;;;14.84;75.11;97215.91;29395;239;63004;-69
2023/09/06 02:28:53;;;;;;;0.50;0.50;;;;;;;14.83;75.31;97208.84;29395;320;63008;-70
2023/09/06 02:29:28;;;;;;;0.40;0.40;;;;;;;14.82;75.13;97207.22;29395;239;63004;-69
2023/09/06 02:30:00;;;;;;;0.40;0.40;;;;;;;14.81;75.19;97211.06;29395;239;63008;-70
2023/09/06 02:30:38;;;;;;;0.40;0.40;;;;;;;14.80;75.27;97204.00;29395;324;63005;-69
2023/09/06 02:31:09;;;;;;;0.50;0.50;;;;;;;14.80;74.90;97209.47;29394;198;64013;-68
2023/09/06 02:31:40;;;;;;;0.50;0.50;;;;;;;14.80;75.18;97220.38;29394;290;64009;-69
2023/09/06 02:32:12;;;;;;;0.47;0.47;;;;;;;14.79;75.30;97214.13;29395;237;63009;-69
2023/09/06 02:32:43;;;;;;;0.47;0.47;;;;;;;14.79;75.37;97213.31;29395;219;63005;-70
2023/09/06 02:33:19;;;;;;;0.50;0.50;;;;;;;14.79;75.26;97207.84;29395;341;63009;-70
2023/09/06 02:33:51;;;;;;;0.40;0.40;;;;;;;14.78;75.27;97206.22;29395;369;63009;-68
2023/09/06 02:34:22;;;;;;;0.50;0.50;;;;;;;14.77;75.14;97221.00;29395;334;63009;-70
2023/09/06 02:34:53;;;;;;;0.50;0.50;;;;;;;14.77;75.04;97215.53;29395;287;63004;-69
2023/09/06 02:35:27;;;;;;;0.40;0.40;;;;;;;14.74;75.00;97220.50;29395;315;63009;-68
2023/09/06 02:35:58;;;;;;;0.40;0.40;;;;;;;14.74;75.29;97206.84;29395;253;63004;-69
2023/09/06 02:36:30;;;;;;;0.50;0.50;;;;;;;14.74;75.73;97209.59;29394;226;64013;-70
2023/09/06 02:37:01;;;;;;;0.50;0.50;;;;;;;14.73;75.58;97210.69;29395;276;63010;-68
2023/09/06 02:37:33;;;;;;;0.40;0.40;;;;;;;14.72;75.57;97206.34;29394;221;64014;-69
2023/09/06 02:38:05;;;;;;;0.50;0.50;;;;;;;14.71;75.49;97207.47;29395;203;63010;-69
2023/09/06 02:38:36;;;;;;;0.50;0.50;;;;;;;14.71;75.54;97217.59;29395;240;63025;-70
2023/09/06 02:39:13;;;;;;;0.40;0.40;;;;;;;14.70;75.64;97211.31;29395;224;63005;-70
2023/09/06 02:39:48;;;;;;;0.50;0.50;;;;;;;14.68;75.41;97208.09;29395;356;63009;-68
2023/09/06 02:40:20;;;;;;;0.40;0.40;;;;;;;14.67;75.07;97211.94;29395;282;63005;-68
2023/09/06 02:40:52;;;;;;;0.40;0.40;;;;;;;14.67;75.56;97211.13;29395;212;63009;-68
2023/09/06 02:41:23;;;;;;;0.40;0.40;;;;;;;14.66;75.60;97215.78;29394;203;64009;-69
2023/09/06 02:41:55;;;;;;;0.50;0.50;;;;;;;14.65;75.69;97219.63;29394;202;64013;-69
2023/09/06 02:42:26;;;;;;;0.40;0.40;;;;;;;14.64;75.38;97220.75;29395;314;63004;-68
2023/09/06 02:42:58;;;;;;;0.40;0.40;;;;;;;14.64;75.96;97215.28;29395;207;63009;-70
2023/09/06 02:43:31;;;;;;;0.40;0.40;;;;;;;14.64;75.93;97217.22;29394;212;64009;-68
2023/09/06 02:44:03;;;;;;;0.43;0.43;;;;;;;14.64;75.98;97220.75;29395;213;63008;-70
2023/09/06 02:44:38;;;;;;;0.40;0.40;;;;;;;14.64;75.95;97214.50;29395;267;63005;-70
2023/09/06 02:45:13;;;;;;;0.40;0.40;;;;;;;14.64;76.01;97218.03;29395;222;63009;-69
2023/09/06 02:45:49;;;;;;;0.40;0.40;;;;;;;14.64;76.04;97215.28;29395;379;63005;-68
2023/09/06 02:46:20;;;;;;;0.50;0.50;;;;;;;14.63;75.92;97216.41;29395;262;63009;-68
2023/09/06 02:46:53;;;;;;;0.50;0.50;;;;;;;14.63;76.03;97210.94;29395;204;63005;-68
2023/09/06 02:47:28;;;;;;;0.40;0.40;;;;;;;14.63;75.90;97215.59;29395;222;63005;-69
2023/09/06 02:48:06;;;;;;;0.40;0.40;;;;;;;14.63;75.82;97210.13;29395;204;63005;-69
2023/09/06 02:48:38;;;;;;;0.40;0.40;;;;;;;14.63;75.80;97216.41;29394;335;64013;-69
2023/09/06 02:49:13;;;;;;;0.40;0.40;;;;;;;14.63;75.94;97213.69;29394;226;64004;-69
2023/09/06 02:49:45;;;;;;;0.40;0.40;;;;;;;14.58;75.92;97213.78;29394;281;64013;-55
2023/09/06 02:50:22;;;;;;;0.40;0.40;;;;;;;14.57;75.85;97214.09;29395;237;63004;-68
2023/09/06 02:50:53;;;;;;;0.40;0.40;;;;;;;14.56;76.38;97216.03;29394;222;64013;-68
2023/09/06 02:51:29;;;;;;;0.40;0.40;;;;;;;14.55;76.27;97210.91;29395;257;63004;-69
2023/09/06 02:52:01;;;;;;;0.40;0.40;;;;;;;14.54;76.07;97218.28;29395;202;63008;-70
2023/09/06 02:52:35;;;;;;;0.40;0.40;;;;;;;14.54;76.28;97212.84;29395;206;63005;-69
2023/09/06 02:53:26;;;;;;;0.40;0.40;;;;;;;14.54;76.13;97210.09;29395;224;63009;-70
2023/09/06 02:54:02;;;;;;;0.40;0.40;;;;;;;14.54;76.13;97212.84;29395;224;63009;-68
2023/09/06 02:54:33;;;;;;;0.40;0.40;;;;;;;14.53;76.10;97211.22;29394;224;64013;-70
2023/09/06 02:55:10;;;;;;;0.40;0.40;;;;;;;14.53;76.50;97208.50;29395;202;63005;-70
2023/09/06 02:55:54;;;;;;;0.40;0.40;;;;;;;14.54;76.65;97212.03;29395;203;63009;-69
2023/09/06 02:56:25;;;;;;;0.40;0.40;;;;;;;14.52;76.51;97212.34;29395;219;63004;-52
2023/09/06 02:56:57;;;;;;;0.40;0.40;;;;;;;14.52;76.72;97206.88;29394;305;64009;-68
2023/09/06 02:57:30;;;;;;;0.40;0.40;;;;;;;14.52;76.64;97209.59;29395;227;63017;-68
2023/09/06 02:58:01;;;;;;;0.40;0.40;;;;;;;14.50;76.68;97211.84;29395;199;63009;-69
2023/09/06 02:58:37;;;;;;;0.40;0.40;;;;;;;14.50;76.65;97206.38;29395;353;63017;-70
2023/09/06 02:59:12;;;;;;;0.40;0.40;;;;;;;14.48;76.92;97205.88;29395;362;63008;-70
2023/09/06 02:59:43;;;;;;;0.40;0.40;;;;;;;14.50;77.01;97206.38;29394;287;64009;-69
2023/09/06 03:00:26;;;;;;;0.50;0.50;;;;;;;14.48;77.18;97200.41;29395;235;63009;-53
2023/09/06 03:00:58;;;;;;;0.40;0.40;;;;;;;14.48;77.28;97208.59;29394;289;64009;-69
2023/09/06 03:01:30;;;;;;;0.40;0.40;;;;;;;14.48;77.09;97203.16;29395;342;63009;-68
2023/09/06 03:02:05;;;;;;;0.40;0.40;;;;;;;14.47;76.91;97204.25;29395;381;63005;-52
2023/09/06 03:02:36;;;;;;;0.43;0.43;;;;;;;14.46;76.67;97202.66;29395;199;63009;-69
2023/09/06 03:03:08;;;;;;;0.40;0.40;;;;;;;14.47;77.00;97198.81;29395;197;63011;-69
2023/09/06 03:03:42;;;;;;;0.50;0.50;;;;;;;14.46;76.89;97210.03;29395;209;63015;-68
2023/09/06 03:04:14;;;;;;;0.40;0.40;;;;;;;14.44;77.32;97199.41;29395;231;63004;-70
2023/09/06 03:04:45;;;;;;;0.40;0.40;;;;;;;14.41;77.21;97209.03;29395;206;63009;-69
2023/09/06 03:05:20;;;;;;;0.40;0.40;;;;;;;14.41;77.39;97208.22;29394;191;64009;-69
2023/09/06 03:05:53;;;;;;;0.40;0.40;;;;;;;14.40;77.58;97201.94;29395;337;63008;-69
2023/09/06 03:06:33;;;;;;;0.40;0.40;;;;;;;14.40;77.70;97206.59;29395;202;63004;-69
2023/09/06 03:07:07;;;;;;;0.40;0.40;;;;;;;14.39;77.58;97205.78;29417;207;63008;-70
2023/09/06 03:07:40;;;;;;;0.50;0.50;;;;;;;14.40;77.49;97207.38;29395;222;63005;-70
2023/09/06 03:08:13;;;;;;;0.50;0.50;;;;;;;14.40;77.42;97206.59;29395;229;63009;-54
2023/09/06 03:08:46;;;;;;;0.50;0.50;;;;;;;14.38;77.45;97208.81;29395;215;63005;-71
2023/09/06 03:09:17;;;;;;;0.50;0.50;;;;;;;14.37;77.33;97209.94;29395;265;63009;-68
2023/09/06 03:09:49;;;;;;;0.40;0.40;;;;;;;14.36;77.42;97211.03;29395;202;63015;-70
2023/09/06 03:10:23;;;;;;;0.50;0.50;;;;;;;14.34;77.11;97205.09;29394;224;64011;-69
2023/09/06 03:10:54;;;;;;;0.40;0.40;;;;;;;14.35;77.28;97209.44;29395;257;63004;-69
2023/09/06 03:11:26;;;;;;;0.40;0.40;;;;;;;14.35;77.26;97212.16;29395;364;63009;-70
2023/09/06 03:12:11;;;;;;;0.40;0.40;;;;;;;14.35;77.18;97209.44;29395;261;63004;-69
2023/09/06 03:12:43;;;;;;;0.50;0.50;;;;;;;14.35;77.43;97209.44;29395;202;63009;-69
2023/09/06 03:13:15;;;;;;;0.50;0.50;;;;;;;14.34;77.32;97205.09;29395;198;63004;-70
2023/09/06 03:13:46;;;;;;;0.50;0.50;;;;;;;14.35;77.47;97203.97;29395;204;63024;-70
2023/09/06 03:14:20;;;;;;;0.40;0.40;;;;;;;14.34;77.50;97208.62;29394;216;64009;-69
2023/09/06 03:14:59;;;;;;;0.50;0.50;;;;;;;14.33;77.33;97215.19;29395;211;63009;-69
2023/09/06 03:16:39;;;;;;;0.50;0.50;;;;;;;14.33;77.62;97211.66;88180;196;64004;-91
2023/09/06 03:17:22;;;;;;;0.50;0.50;;;;;;;14.34;77.94;97207.81;29394;255;64009;-92
2023/09/06 03:17:59;;;;;;;0.47;0.47;;;;;;;14.33;77.79;97211.66;29395;231;63005;-91
2023/09/06 03:18:30;;;;;;;0.40;0.40;;;;;;;14.32;77.89;97210.84;29395;205;63009;-91
2023/09/06 03:19:19;;;;;;;0.40;0.40;;;;;;;14.31;77.90;97209.25;29395;207;63004;-91
2023/09/06 03:20:47;;;;;;;0.50;0.50;;;;;;;14.25;78.13;97215.94;29395;202;63005;-68
2023/09/06 03:21:19;;;;;;;0.50;0.50;;;;;;;14.25;78.49;97209.66;29395;197;63008;-69
2023/09/06 03:21:51;;;;;;;0.50;0.50;;;;;;;14.26;78.19;97211.28;29395;228;63005;-71
2023/09/06 03:22:23;;;;;;;0.50;0.50;;;;;;;14.26;78.47;97205.81;29395;205;63024;-70